sensor_id;sensor_type;location;lat;lon;timestamp;pressure;altitude;pressure_sealevel;temperature;humidity
47811;BME280;33575;52.600;7.318;2023-02-22T00:01:02;101415.82;;;9.01;96.72
47811;BME280;33575;52.600;7.318;2023-02-22T00:03:32;101414.91;;;8.95;98.26
47811;BME280;33575;52.600;7.318;2023-02-22T00:06:04;101408.84;;;9.04;98.86
47811;BME280;33575;52.600;7.318;2023-02-22T00:08:36;101408.35;;;9.07;98.11
47811;BME280;33575;52.600;7.318;2023-02-22T00:11:05;101404.04;;;9.07;97.28
47811;BME280;33575;52.600;7.318;2023-02-22T00:13:33;101402.75;;;9.04;97.39
47811;BME280;33575;52.600;7.318;2023-02-22T00:16:05;101398.65;;;9.03;96.91
47811;BME280;33575;52.600;7.318;2023-02-22T00:18:35;101395.86;;;9.03;96.90
47811;BME280;33575;52.600;7.318;2023-02-22T00:21:05;101387.77;;;9.05;97.00
47811;BME280;33575;52.600;7.318;2023-02-22T00:23:38;101388.11;;;9.04;97.23
47811;BME280;33575;52.600;7.318;2023-02-22T00:26:06;101385.77;;;8.97;97.39
47811;BME280;33575;52.600;7.318;2023-02-22T00:28:36;101383.76;;;8.92;97.70
47811;BME280;33575;52.600;7.318;2023-02-22T00:31:06;101380.18;;;8.91;97.25
47811;BME280;33575;52.600;7.318;2023-02-22T00:33:38;101381.08;;;8.92;97.51
47811;BME280;33575;52.600;7.318;2023-02-22T00:36:09;101378.47;;;8.92;97.68
47811;BME280;33575;52.600;7.318;2023-02-22T00:38:37;101379.51;;;8.94;97.48
47811;BME280;33575;52.600;7.318;2023-02-22T00:41:07;101378.99;;;8.94;97.67
47811;BME280;33575;52.600;7.318;2023-02-22T00:43:37;101374.66;;;8.90;97.95
47811;BME280;33575;52.600;7.318;2023-02-22T00:46:08;101370.74;;;8.90;98.57
47811;BME280;33575;52.600;7.318;2023-02-22T00:48:38;101364.92;;;8.90;99.25
47811;BME280;33575;52.600;7.318;2023-02-22T00:51:08;101359.60;;;8.93;98.01
47811;BME280;33575;52.600;7.318;2023-02-22T00:53:39;101356.92;;;8.95;97.81
47811;BME280;33575;52.600;7.318;2023-02-22T00:56:09;101356.16;;;8.98;97.46
47811;BME280;33575;52.600;7.318;2023-02-22T00:58:39;101353.56;;;8.99;97.31
47811;BME280;33575;52.600;7.318;2023-02-22T01:01:10;101353.82;;;8.96;97.33
47811;BME280;33575;52.600;7.318;2023-02-22T01:03:40;101353.27;;;8.98;97.44
47811;BME280;33575;52.600;7.318;2023-02-22T01:06:11;101354.31;;;9.01;97.21
47811;BME280;33575;52.600;7.318;2023-02-22T01:08:43;101354.65;;;9.05;97.42
47811;BME280;33575;52.600;7.318;2023-02-22T01:11:12;101348.65;;;9.05;97.13
47811;BME280;33575;52.600;7.318;2023-02-22T01:13:42;101347.27;;;9.08;97.32
47811;BME280;33575;52.600;7.318;2023-02-22T01:16:13;101345.60;;;9.11;97.27
47811;BME280;33575;52.600;7.318;2023-02-22T01:18:43;101344.16;;;9.12;96.85
47811;BME280;33575;52.600;7.318;2023-02-22T01:21:13;101345.01;;;9.15;96.89
47811;BME280;33575;52.600;7.318;2023-02-22T01:23:43;101340.04;;;9.16;96.71
47811;BME280;33575;52.600;7.318;2023-02-22T01:26:14;101337.87;;;9.18;96.55
47811;BME280;33575;52.600;7.318;2023-02-22T01:28:44;101330.76;;;9.15;96.59
47811;BME280;33575;52.600;7.318;2023-02-22T01:31:14;101329.38;;;9.14;96.30
47811;BME280;33575;52.600;7.318;2023-02-22T01:33:45;101326.27;;;9.14;96.38
47811;BME280;33575;52.600;7.318;2023-02-22T01:36:16;101325.15;;;9.10;96.49
47811;BME280;33575;52.600;7.318;2023-02-22T01:38:46;101318.78;;;9.08;96.74
47811;BME280;33575;52.600;7.318;2023-02-22T01:41:16;101315.14;;;9.09;96.46
47811;BME280;33575;52.600;7.318;2023-02-22T01:43:46;101309.07;;;9.09;96.59
47811;BME280;33575;52.600;7.318;2023-02-22T01:46:22;101303.68;;;9.10;96.42
47811;BME280;33575;52.600;7.318;2023-02-22T01:48:49;101304.12;;;9.08;96.55
47811;BME280;33575;52.600;7.318;2023-02-22T01:51:21;101302.29;;;9.06;96.28
47811;BME280;33575;52.600;7.318;2023-02-22T01:53:52;101298.66;;;9.03;96.89
47811;BME280;33575;52.600;7.318;2023-02-22T01:56:21;101297.72;;;9.00;96.74
47811;BME280;33575;52.600;7.318;2023-02-22T01:58:53;101299.17;;;8.98;96.54
47811;BME280;33575;52.600;7.318;2023-02-22T02:01:21;101297.84;;;8.96;96.23
47811;BME280;33575;52.600;7.318;2023-02-22T02:03:51;101297.11;;;8.95;96.49
47811;BME280;33575;52.600;7.318;2023-02-22T02:06:20;101299.79;;;8.94;96.61
47811;BME280;33575;52.600;7.318;2023-02-22T02:08:56;101302.14;;;8.93;96.69
47811;BME280;33575;52.600;7.318;2023-02-22T02:11:24;101295.64;;;8.90;97.11
47811;BME280;33575;52.600;7.318;2023-02-22T02:13:53;101296.05;;;8.90;96.58
47811;BME280;33575;52.600;7.318;2023-02-22T02:16:24;101296.60;;;8.92;96.74
47811;BME280;33575;52.600;7.318;2023-02-22T02:18:53;101290.72;;;8.90;97.02
47811;BME280;33575;52.600;7.318;2023-02-22T02:31:38;101292.37;;;8.75;97.17
47811;BME280;33575;52.600;7.318;2023-02-22T02:33:58;101285.10;;;8.77;97.19
47811;BME280;33575;52.600;7.318;2023-02-22T02:36:30;101286.36;;;8.80;97.04
47811;BME280;33575;52.600;7.318;2023-02-22T02:39:03;101285.16;;;8.81;96.84
47811;BME280;33575;52.600;7.318;2023-02-22T02:41:32;101282.02;;;8.78;97.24
47811;BME280;33575;52.600;7.318;2023-02-22T02:44:00;101278.95;;;8.76;97.02
47811;BME280;33575;52.600;7.318;2023-02-22T02:46:31;101272.27;;;8.71;97.57
47811;BME280;33575;52.600;7.318;2023-02-22T02:49:01;101266.77;;;8.67;98.18
47811;BME280;33575;52.600;7.318;2023-02-22T02:51:33;101270.61;;;8.64;98.05
47811;BME280;33575;52.600;7.318;2023-02-22T02:54:00;101267.45;;;8.62;97.58
47811;BME280;33575;52.600;7.318;2023-02-22T02:56:29;101266.67;;;8.63;97.60
47811;BME280;33575;52.600;7.318;2023-02-22T02:59:00;101270.57;;;8.61;98.02
47811;BME280;33575;52.600;7.318;2023-02-22T03:01:43;101265.65;;;8.59;97.64
47811;BME280;33575;52.600;7.318;2023-02-22T03:04:10;101263.37;;;8.64;97.40
47811;BME280;33575;52.600;7.318;2023-02-22T03:09:06;101259.53;;;8.64;97.67
47811;BME280;33575;52.600;7.318;2023-02-22T03:11:35;101254.95;;;8.68;97.48
47811;BME280;33575;52.600;7.318;2023-02-22T03:14:10;101251.60;;;8.68;97.74
47811;BME280;33575;52.600;7.318;2023-02-22T03:16:38;101249.33;;;8.69;97.52
47811;BME280;33575;52.600;7.318;2023-02-22T03:19:08;101247.60;;;8.69;97.56
47811;BME280;33575;52.600;7.318;2023-02-22T03:21:40;101244.10;;;8.70;97.15
47811;BME280;33575;52.600;7.318;2023-02-22T03:24:08;101242.37;;;8.71;97.19
47811;BME280;33575;52.600;7.318;2023-02-22T03:26:36;101242.34;;;8.65;98.29
47811;BME280;33575;52.600;7.318;2023-02-22T03:29:06;101239.95;;;8.62;97.99
47811;BME280;33575;52.600;7.318;2023-02-22T03:31:39;101237.90;;;8.58;98.40
47811;BME280;33575;52.600;7.318;2023-02-22T03:34:07;101234.34;;;8.60;97.72
47811;BME280;33575;52.600;7.318;2023-02-22T03:36:40;101234.05;;;8.61;97.28
47811;BME280;33575;52.600;7.318;2023-02-22T03:39:09;101231.27;;;8.64;97.19
47811;BME280;33575;52.600;7.318;2023-02-22T03:41:37;101226.47;;;8.67;97.51
47811;BME280;33575;52.600;7.318;2023-02-22T03:44:09;101226.97;;;8.69;97.64
47811;BME280;33575;52.600;7.318;2023-02-22T03:46:38;101228.55;;;8.72;98.11
47811;BME280;33575;52.600;7.318;2023-02-22T03:49:11;101226.70;;;8.75;98.37
47811;BME280;33575;52.600;7.318;2023-02-22T03:51:38;101224.67;;;8.81;97.51
47811;BME280;33575;52.600;7.318;2023-02-22T03:54:10;101222.94;;;8.82;97.34
47811;BME280;33575;52.600;7.318;2023-02-22T03:56:44;101220.12;;;8.85;97.16
47811;BME280;33575;52.600;7.318;2023-02-22T03:59:09;101217.71;;;8.90;96.59
47811;BME280;33575;52.600;7.318;2023-02-22T04:01:39;101215.36;;;8.96;96.59
47811;BME280;33575;52.600;7.318;2023-02-22T04:04:10;101213.29;;;9.00;96.23
47811;BME280;33575;52.600;7.318;2023-02-22T04:06:41;101209.14;;;9.03;96.15
47811;BME280;33575;52.600;7.318;2023-02-22T04:09:11;101207.68;;;9.04;95.53
47811;BME280;33575;52.600;7.318;2023-02-22T04:11:42;101202.88;;;9.05;95.45
47811;BME280;33575;52.600;7.318;2023-02-22T04:14:13;101199.14;;;9.06;95.25
47811;BME280;33575;52.600;7.318;2023-02-22T04:16:43;101196.61;;;9.03;95.25
47811;BME280;33575;52.600;7.318;2023-02-22T04:19:13;101194.54;;;8.99;94.92
47811;BME280;33575;52.600;7.318;2023-02-22T04:21:43;101197.12;;;8.95;95.21
47811;BME280;33575;52.600;7.318;2023-02-22T04:24:14;101196.33;;;8.91;95.06
47811;BME280;33575;52.600;7.318;2023-02-22T04:26:44;101195.99;;;8.87;95.10
47811;BME280;33575;52.600;7.318;2023-02-22T04:29:14;101190.04;;;8.83;95.36
47811;BME280;33575;52.600;7.318;2023-02-22T04:31:44;101189.51;;;8.80;95.17
47811;BME280;33575;52.600;7.318;2023-02-22T04:34:15;101190.78;;;8.79;95.28
47811;BME280;33575;52.600;7.318;2023-02-22T04:36:46;101188.11;;;8.79;95.04
47811;BME280;33575;52.600;7.318;2023-02-22T04:39:16;101188.02;;;8.80;93.88
47811;BME280;33575;52.600;7.318;2023-02-22T04:41:46;101186.37;;;8.79;93.15
47811;BME280;33575;52.600;7.318;2023-02-22T04:44:16;101186.76;;;8.79;92.66
47811;BME280;33575;52.600;7.318;2023-02-22T04:46:47;101182.65;;;8.77;92.11
47811;BME280;33575;52.600;7.318;2023-02-22T04:49:17;101180.68;;;8.75;92.59
47811;BME280;33575;52.600;7.318;2023-02-22T04:51:48;101178.28;;;8.74;92.36
47811;BME280;33575;52.600;7.318;2023-02-22T04:54:19;101175.44;;;8.73;92.29
47811;BME280;33575;52.600;7.318;2023-02-22T04:56:49;101173.49;;;8.70;92.13
47811;BME280;33575;52.600;7.318;2023-02-22T04:59:20;101177.75;;;8.69;92.19
47811;BME280;33575;52.600;7.318;2023-02-22T05:01:52;101174.53;;;8.65;92.40
47811;BME280;33575;52.600;7.318;2023-02-22T05:04:22;101173.11;;;8.61;92.57
47811;BME280;33575;52.600;7.318;2023-02-22T05:06:55;101175.80;;;8.59;92.25
47811;BME280;33575;52.600;7.318;2023-02-22T05:09:23;101174.27;;;8.56;91.83
47811;BME280;33575;52.600;7.318;2023-02-22T05:11:53;101171.24;;;8.52;91.48
47811;BME280;33575;52.600;7.318;2023-02-22T05:14:23;101171.16;;;8.50;91.31
47811;BME280;33575;52.600;7.318;2023-02-22T05:16:54;101169.16;;;8.45;91.35
47811;BME280;33575;52.600;7.318;2023-02-22T05:19:24;101171.17;;;8.37;91.45
47811;BME280;33575;52.600;7.318;2023-02-22T05:21:55;101168.34;;;8.29;91.57
47811;BME280;33575;52.600;7.318;2023-02-22T05:24:26;101168.74;;;8.22;91.57
47811;BME280;33575;52.600;7.318;2023-02-22T05:26:56;101166.30;;;8.13;91.36
47811;BME280;33575;52.600;7.318;2023-02-22T05:29:25;101165.32;;;8.05;91.51
47811;BME280;33575;52.600;7.318;2023-02-22T05:31:56;101164.96;;;7.98;90.80
47811;BME280;33575;52.600;7.318;2023-02-22T05:34:26;101163.97;;;7.92;91.14
47811;BME280;33575;52.600;7.318;2023-02-22T05:36:56;101161.59;;;7.86;91.46
47811;BME280;33575;52.600;7.318;2023-02-22T05:39:27;101160.92;;;7.81;91.21
47811;BME280;33575;52.600;7.318;2023-02-22T05:41:57;101158.01;;;7.74;90.96
47811;BME280;33575;52.600;7.318;2023-02-22T05:44:27;101159.55;;;7.65;91.49
47811;BME280;33575;52.600;7.318;2023-02-22T05:46:58;101159.83;;;7.53;91.71
47811;BME280;33575;52.600;7.318;2023-02-22T05:49:28;101161.12;;;7.38;91.83
47811;BME280;33575;52.600;7.318;2023-02-22T05:51:58;101155.04;;;7.29;92.68
47811;BME280;33575;52.600;7.318;2023-02-22T05:54:28;101153.25;;;7.26;93.00
47811;BME280;33575;52.600;7.318;2023-02-22T05:56:58;101154.31;;;7.19;93.66
47811;BME280;33575;52.600;7.318;2023-02-22T05:59:28;101155.29;;;7.16;94.19
47811;BME280;33575;52.600;7.318;2023-02-22T06:01:58;101152.20;;;7.15;95.15
47811;BME280;33575;52.600;7.318;2023-02-22T06:04:29;101148.70;;;7.14;95.92
47811;BME280;33575;52.600;7.318;2023-02-22T06:06:59;101145.17;;;7.18;96.42
47811;BME280;33575;52.600;7.318;2023-02-22T06:09:29;101141.59;;;7.21;96.22
47811;BME280;33575;52.600;7.318;2023-02-22T06:12:00;101145.74;;;7.26;96.24
47811;BME280;33575;52.600;7.318;2023-02-22T06:14:30;101143.86;;;7.30;96.55
47811;BME280;33575;52.600;7.318;2023-02-22T06:17:01;101143.32;;;7.32;97.89
47811;BME280;33575;52.600;7.318;2023-02-22T06:19:32;101139.76;;;7.44;100.00
47811;BME280;33575;52.600;7.318;2023-02-22T06:22:02;101137.62;;;7.52;98.53
47811;BME280;33575;52.600;7.318;2023-02-22T06:24:33;101136.57;;;7.49;97.83
47811;BME280;33575;52.600;7.318;2023-02-22T06:27:03;101135.33;;;7.43;97.34
47811;BME280;33575;52.600;7.318;2023-02-22T06:29:33;101135.02;;;7.35;98.90
47811;BME280;33575;52.600;7.318;2023-02-22T06:32:04;101136.28;;;7.22;99.65
47811;BME280;33575;52.600;7.318;2023-02-22T06:34:34;101135.76;;;7.08;100.00
47811;BME280;33575;52.600;7.318;2023-02-22T06:37:05;101137.37;;;7.03;100.00
47811;BME280;33575;52.600;7.318;2023-02-22T06:39:35;101135.29;;;7.05;100.00
47811;BME280;33575;52.600;7.318;2023-02-22T06:42:06;101136.32;;;6.98;100.00
47811;BME280;33575;52.600;7.318;2023-02-22T06:44:37;101137.87;;;7.02;100.00
47811;BME280;33575;52.600;7.318;2023-02-22T06:47:07;101136.99;;;6.99;100.00
47811;BME280;33575;52.600;7.318;2023-02-22T06:49:37;101133.53;;;7.05;100.00
47811;BME280;33575;52.600;7.318;2023-02-22T06:52:09;101127.64;;;7.04;100.00
47811;BME280;33575;52.600;7.318;2023-02-22T06:54:38;101131.09;;;7.02;100.00
47811;BME280;33575;52.600;7.318;2023-02-22T06:57:08;101129.74;;;7.03;100.00
47811;BME280;33575;52.600;7.318;2023-02-22T06:59:39;101127.53;;;7.07;100.00
47811;BME280;33575;52.600;7.318;2023-02-22T07:02:10;101127.11;;;7.07;100.00
47811;BME280;33575;52.600;7.318;2023-02-22T07:04:44;101126.89;;;7.13;100.00
47811;BME280;33575;52.600;7.318;2023-02-22T07:07:10;101130.84;;;7.09;100.00
47811;BME280;33575;52.600;7.318;2023-02-22T07:09:41;101132.09;;;7.07;100.00
47811;BME280;33575;52.600;7.318;2023-02-22T07:12:11;101137.19;;;7.06;100.00
47811;BME280;33575;52.600;7.318;2023-02-22T07:14:42;101138.18;;;7.08;100.00
47811;BME280;33575;52.600;7.318;2023-02-22T07:17:13;101134.19;;;7.13;100.00
47811;BME280;33575;52.600;7.318;2023-02-22T07:19:43;101133.63;;;7.10;100.00
47811;BME280;33575;52.600;7.318;2023-02-22T07:22:14;101132.36;;;7.04;100.00
47811;BME280;33575;52.600;7.318;2023-02-22T07:24:44;101135.21;;;7.04;100.00
47811;BME280;33575;52.600;7.318;2023-02-22T07:27:15;101134.57;;;6.98;100.00
47811;BME280;33575;52.600;7.318;2023-02-22T07:29:45;101133.10;;;6.83;100.00
47811;BME280;33575;52.600;7.318;2023-02-22T07:32:16;101131.79;;;6.77;100.00
47811;BME280;33575;52.600;7.318;2023-02-22T07:34:46;101130.41;;;6.75;100.00
47811;BME280;33575;52.600;7.318;2023-02-22T07:37:16;101127.77;;;6.72;100.00
47811;BME280;33575;52.600;7.318;2023-02-22T07:39:47;101132.91;;;6.76;100.00
47811;BME280;33575;52.600;7.318;2023-02-22T07:42:17;101129.78;;;6.82;100.00
47811;BME280;33575;52.600;7.318;2023-02-22T07:44:48;101130.87;;;6.91;100.00
47811;BME280;33575;52.600;7.318;2023-02-22T07:47:19;101131.32;;;7.01;100.00
47811;BME280;33575;52.600;7.318;2023-02-22T07:49:49;101131.29;;;7.05;99.89
47811;BME280;33575;52.600;7.318;2023-02-22T07:52:19;101130.76;;;7.05;99.97
47811;BME280;33575;52.600;7.318;2023-02-22T07:54:50;101131.63;;;6.94;100.00
47811;BME280;33575;52.600;7.318;2023-02-22T07:57:21;101128.99;;;6.97;100.00
47811;BME280;33575;52.600;7.318;2023-02-22T07:59:52;101128.84;;;7.01;100.00
47811;BME280;33575;52.600;7.318;2023-02-22T08:02:23;101127.46;;;7.02;100.00
47811;BME280;33575;52.600;7.318;2023-02-22T08:04:52;101124.15;;;7.00;100.00
47811;BME280;33575;52.600;7.318;2023-02-22T08:07:23;101120.99;;;7.05;99.50
47811;BME280;33575;52.600;7.318;2023-02-22T08:09:54;101123.39;;;7.03;99.78
47811;BME280;33575;52.600;7.318;2023-02-22T08:12:24;101118.35;;;6.97;100.00
47811;BME280;33575;52.600;7.318;2023-02-22T08:14:54;101117.27;;;6.99;100.00
47811;BME280;33575;52.600;7.318;2023-02-22T08:17:24;101111.48;;;6.97;100.00
47811;BME280;33575;52.600;7.318;2023-02-22T08:19:54;101111.74;;;6.96;100.00
47811;BME280;33575;52.600;7.318;2023-02-22T08:22:25;101109.53;;;6.98;100.00
47811;BME280;33575;52.600;7.318;2023-02-22T08:24:56;101111.28;;;7.02;100.00
47811;BME280;33575;52.600;7.318;2023-02-22T08:27:28;101106.13;;;7.13;100.00
47811;BME280;33575;52.600;7.318;2023-02-22T08:29:57;101102.82;;;7.21;100.00
47811;BME280;33575;52.600;7.318;2023-02-22T08:32:27;101104.65;;;7.14;100.00
47811;BME280;33575;52.600;7.318;2023-02-22T08:34:57;101107.33;;;7.05;100.00
47811;BME280;33575;52.600;7.318;2023-02-22T08:37:28;101109.10;;;6.93;100.00
47811;BME280;33575;52.600;7.318;2023-02-22T08:39:59;101107.34;;;6.93;100.00
47811;BME280;33575;52.600;7.318;2023-02-22T08:42:30;101106.14;;;6.90;100.00
47811;BME280;33575;52.600;7.318;2023-02-22T08:45:00;101107.23;;;6.89;100.00
47811;BME280;33575;52.600;7.318;2023-02-22T08:47:31;101106.58;;;6.82;100.00
47811;BME280;33575;52.600;7.318;2023-02-22T08:50:03;101110.33;;;6.94;100.00
47811;BME280;33575;52.600;7.318;2023-02-22T08:52:32;101107.16;;;6.94;100.00
47811;BME280;33575;52.600;7.318;2023-02-22T08:55:03;101103.15;;;6.89;100.00
47811;BME280;33575;52.600;7.318;2023-02-22T08:57:34;101109.94;;;6.97;100.00
47811;BME280;33575;52.600;7.318;2023-02-22T09:00:05;101109.32;;;6.88;100.00
47811;BME280;33575;52.600;7.318;2023-02-22T09:02:35;101107.24;;;6.98;100.00
47811;BME280;33575;52.600;7.318;2023-02-22T09:05:06;101106.68;;;7.01;100.00
47811;BME280;33575;52.600;7.318;2023-02-22T09:07:37;101099.23;;;7.06;100.00
47811;BME280;33575;52.600;7.318;2023-02-22T09:10:07;101093.79;;;7.14;100.00
47811;BME280;33575;52.600;7.318;2023-02-22T09:12:37;101091.45;;;7.23;100.00
47811;BME280;33575;52.600;7.318;2023-02-22T09:15:08;101089.71;;;7.26;100.00
47811;BME280;33575;52.600;7.318;2023-02-22T09:17:37;101090.06;;;7.27;100.00
47811;BME280;33575;52.600;7.318;2023-02-22T09:20:09;101085.68;;;7.22;100.00
47811;BME280;33575;52.600;7.318;2023-02-22T09:22:38;101084.56;;;7.17;100.00
47811;BME280;33575;52.600;7.318;2023-02-22T09:25:14;101082.98;;;7.15;100.00
47811;BME280;33575;52.600;7.318;2023-02-22T09:27:39;101079.77;;;7.26;100.00
47811;BME280;33575;52.600;7.318;2023-02-22T09:30:15;101079.21;;;7.38;100.00
47811;BME280;33575;52.600;7.318;2023-02-22T09:32:40;101080.04;;;7.49;100.00
47811;BME280;33575;52.600;7.318;2023-02-22T09:35:10;101082.18;;;7.52;100.00
47811;BME280;33575;52.600;7.318;2023-02-22T09:37:40;101079.52;;;7.51;100.00
47811;BME280;33575;52.600;7.318;2023-02-22T09:40:15;101082.29;;;7.46;100.00
47811;BME280;33575;52.600;7.318;2023-02-22T09:42:45;101086.17;;;7.42;100.00
47811;BME280;33575;52.600;7.318;2023-02-22T09:45:17;101085.37;;;7.30;100.00
47811;BME280;33575;52.600;7.318;2023-02-22T09:47:46;101086.13;;;7.24;100.00
47811;BME280;33575;52.600;7.318;2023-02-22T09:50:16;101082.42;;;7.24;100.00
47811;BME280;33575;52.600;7.318;2023-02-22T09:52:52;101082.23;;;7.15;100.00
47811;BME280;33575;52.600;7.318;2023-02-22T09:55:25;101080.50;;;7.19;100.00
47811;BME280;33575;52.600;7.318;2023-02-22T09:57:46;101082.91;;;7.34;100.00
47811;BME280;33575;52.600;7.318;2023-02-22T10:00:19;101080.73;;;7.46;100.00
47811;BME280;33575;52.600;7.318;2023-02-22T10:02:50;101077.88;;;7.55;100.00
47811;BME280;33575;52.600;7.318;2023-02-22T10:05:20;101078.71;;;7.62;100.00
47811;BME280;33575;52.600;7.318;2023-02-22T10:07:52;101083.08;;;7.65;100.00
47811;BME280;33575;52.600;7.318;2023-02-22T10:10:20;101080.82;;;7.63;100.00
47811;BME280;33575;52.600;7.318;2023-02-22T10:12:53;101078.41;;;7.64;100.00
47811;BME280;33575;52.600;7.318;2023-02-22T10:15:29;101073.93;;;7.60;100.00
47811;BME280;33575;52.600;7.318;2023-02-22T10:17:56;101069.69;;;7.61;100.00
47811;BME280;33575;52.600;7.318;2023-02-22T10:20:31;101063.16;;;7.55;100.00
47811;BME280;33575;52.600;7.318;2023-02-22T10:23:01;101063.56;;;7.57;100.00
47811;BME280;33575;52.600;7.318;2023-02-22T10:25:22;101064.01;;;7.47;100.00
47811;BME280;33575;52.600;7.318;2023-02-22T10:27:54;101062.50;;;7.52;100.00
47811;BME280;33575;52.600;7.318;2023-02-22T10:30:30;101063.61;;;7.57;100.00
47811;BME280;33575;52.600;7.318;2023-02-22T10:32:56;101063.36;;;7.57;100.00
47811;BME280;33575;52.600;7.318;2023-02-22T10:35:24;101064.09;;;7.51;100.00
47811;BME280;33575;52.600;7.318;2023-02-22T10:37:56;101063.58;;;7.53;100.00
47811;BME280;33575;52.600;7.318;2023-02-22T10:40:24;101062.64;;;7.51;100.00
47811;BME280;33575;52.600;7.318;2023-02-22T10:42:53;101062.50;;;7.63;100.00
47811;BME280;33575;52.600;7.318;2023-02-22T10:45:26;101060.53;;;7.69;100.00
47811;BME280;33575;52.600;7.318;2023-02-22T10:47:56;101059.43;;;7.73;100.00
47811;BME280;33575;52.600;7.318;2023-02-22T10:50:25;101057.34;;;7.84;100.00
47811;BME280;33575;52.600;7.318;2023-02-22T10:52:55;101047.29;;;7.78;100.00
47811;BME280;33575;52.600;7.318;2023-02-22T10:55:25;101048.96;;;7.84;100.00
47811;BME280;33575;52.600;7.318;2023-02-22T10:58:01;101045.18;;;7.96;100.00
47811;BME280;33575;52.600;7.318;2023-02-22T11:00:29;101036.44;;;8.04;100.00
47811;BME280;33575;52.600;7.318;2023-02-22T11:02:59;101026.91;;;8.09;100.00
47811;BME280;33575;52.600;7.318;2023-02-22T11:05:31;101022.62;;;8.01;100.00
47811;BME280;33575;52.600;7.318;2023-02-22T11:10:30;101022.80;;;8.09;99.64
47811;BME280;33575;52.600;7.318;2023-02-22T11:15:29;101018.08;;;8.22;98.86
47811;BME280;33575;52.600;7.318;2023-02-22T11:18:00;101017.71;;;8.28;99.96
47811;BME280;33575;52.600;7.318;2023-02-22T11:20:34;101015.46;;;8.36;100.00
47811;BME280;33575;52.600;7.318;2023-02-22T11:23:03;101017.30;;;8.52;99.28
47811;BME280;33575;52.600;7.318;2023-02-22T11:25:33;101015.38;;;8.53;98.44
47811;BME280;33575;52.600;7.318;2023-02-22T11:28:07;101014.59;;;8.40;98.92
47811;BME280;33575;52.600;7.318;2023-02-22T11:30:33;101017.92;;;8.45;98.27
47811;BME280;33575;52.600;7.318;2023-02-22T11:33:10;101016.58;;;8.44;98.98
47811;BME280;33575;52.600;7.318;2023-02-22T11:35:38;101017.35;;;8.39;98.98
47811;BME280;33575;52.600;7.318;2023-02-22T11:38:09;101016.31;;;8.35;99.77
47811;BME280;33575;52.600;7.318;2023-02-22T11:40:35;101012.53;;;8.39;98.94
47811;BME280;33575;52.600;7.318;2023-02-22T11:43:07;101004.26;;;8.47;99.08
47811;BME280;33575;52.600;7.318;2023-02-22T11:45:34;101005.30;;;8.52;99.63
47811;BME280;33575;52.600;7.318;2023-02-22T11:48:06;101009.40;;;8.66;98.57
47811;BME280;33575;52.600;7.318;2023-02-22T11:50:41;101000.71;;;8.62;99.43
47811;BME280;33575;52.600;7.318;2023-02-22T11:53:17;100995.14;;;8.61;99.70
47811;BME280;33575;52.600;7.318;2023-02-22T11:55:47;100990.18;;;8.71;99.43
47811;BME280;33575;52.600;7.318;2023-02-22T11:58:17;100984.20;;;8.62;99.29
47811;BME280;33575;52.600;7.318;2023-02-22T12:00:46;100975.70;;;8.68;99.48
47811;BME280;33575;52.600;7.318;2023-02-22T12:03:20;100976.92;;;8.71;99.71
47811;BME280;33575;52.600;7.318;2023-02-22T12:05:46;100972.57;;;8.77;99.50
47811;BME280;33575;52.600;7.318;2023-02-22T12:08:19;100971.45;;;8.85;98.33
47811;BME280;33575;52.600;7.318;2023-02-22T12:10:45;100970.35;;;8.77;99.78
47811;BME280;33575;52.600;7.318;2023-02-22T12:13:21;100965.77;;;8.94;98.83
47811;BME280;33575;52.600;7.318;2023-02-22T12:15:45;100970.01;;;8.96;98.52
47811;BME280;33575;52.600;7.318;2023-02-22T12:18:13;100968.66;;;8.97;98.56
47811;BME280;33575;52.600;7.318;2023-02-22T12:20:44;100968.51;;;9.00;98.84
47811;BME280;33575;52.600;7.318;2023-02-22T12:23:16;100969.71;;;9.05;98.27
47811;BME280;33575;52.600;7.318;2023-02-22T12:25:49;100967.31;;;9.08;97.60
47811;BME280;33575;52.600;7.318;2023-02-22T12:28:18;100963.00;;;9.08;98.52
47811;BME280;33575;52.600;7.318;2023-02-22T12:30:44;100964.09;;;9.18;98.59
47811;BME280;33575;52.600;7.318;2023-02-22T12:33:15;100960.16;;;9.26;100.00
47811;BME280;33575;52.600;7.318;2023-02-22T12:35:48;100957.07;;;9.28;97.79
47811;BME280;33575;52.600;7.318;2023-02-22T12:38:18;100950.02;;;9.31;97.71
47811;BME280;33575;52.600;7.318;2023-02-22T12:40:48;100948.65;;;9.44;97.28
47811;BME280;33575;52.600;7.318;2023-02-22T12:43:17;100944.43;;;9.53;97.25
47811;BME280;33575;52.600;7.318;2023-02-22T12:45:46;100944.47;;;9.59;97.02
47811;BME280;33575;52.600;7.318;2023-02-22T12:48:25;100947.58;;;9.66;96.20
47811;BME280;33575;52.600;7.318;2023-02-22T12:50:46;100948.97;;;9.67;96.32
47811;BME280;33575;52.600;7.318;2023-02-22T12:53:19;100949.70;;;9.70;95.77
47811;BME280;33575;52.600;7.318;2023-02-22T12:55:49;100947.90;;;9.72;95.41
47811;BME280;33575;52.600;7.318;2023-02-22T12:58:21;100942.08;;;9.71;95.98
47811;BME280;33575;52.600;7.318;2023-02-22T13:00:49;100941.40;;;9.74;95.61
47811;BME280;33575;52.600;7.318;2023-02-22T13:03:27;100941.59;;;9.82;95.43
47811;BME280;33575;52.600;7.318;2023-02-22T13:05:50;100938.83;;;9.86;94.67
47811;BME280;33575;52.600;7.318;2023-02-22T13:08:25;100936.22;;;9.89;94.32
47811;BME280;33575;52.600;7.318;2023-02-22T13:10:57;100933.79;;;9.96;94.31
47811;BME280;33575;52.600;7.318;2023-02-22T13:13:23;100933.43;;;10.04;94.49
47811;BME280;33575;52.600;7.318;2023-02-22T13:15:52;100934.53;;;10.10;93.30
47811;BME280;33575;52.600;7.318;2023-02-22T13:18:21;100929.34;;;10.14;94.98
47811;BME280;33575;52.600;7.318;2023-02-22T13:20:53;100927.49;;;10.25;95.16
47811;BME280;33575;52.600;7.318;2023-02-22T13:23:29;100924.04;;;10.40;95.06
47811;BME280;33575;52.600;7.318;2023-02-22T13:25:54;100917.81;;;10.48;94.87
47811;BME280;33575;52.600;7.318;2023-02-22T13:28:27;100918.05;;;10.55;94.43
47811;BME280;33575;52.600;7.318;2023-02-22T13:31:03;100916.99;;;10.57;93.69